sensor_id;sensor_type;location;lat;lon;timestamp;P1;durP1;ratioP1;P2;durP2;ratioP2
73632;SDS011;61927;50.080;14.418;2023-07-13T00:01:35;7.90;;;3.58;;
73632;SDS011;61927;50.080;14.418;2023-07-13T00:04:04;9.13;;;3.30;;
73632;SDS011;61927;50.080;14.418;2023-07-13T00:06:29;7.07;;;3.10;;
73632;SDS011;61927;50.080;14.418;2023-07-13T00:08:58;6.68;;;3.38;;
73632;SDS011;61927;50.080;14.418;2023-07-13T00:11:24;5.03;;;3.20;;
73632;SDS011;61927;50.080;14.418;2023-07-13T00:13:50;5.50;;;3.38;;
73632;SDS011;61927;50.080;14.418;2023-07-13T00:16:16;8.55;;;3.40;;
73632;SDS011;61927;50.080;14.418;2023-07-13T00:18:44;8.20;;;3.30;;
73632;SDS011;61927;50.080;14.418;2023-07-13T00:21:11;10.80;;;3.80;;
73632;SDS011;61927;50.080;14.418;2023-07-13T00:23:40;5.95;;;3.13;;
73632;SDS011;61927;50.080;14.418;2023-07-13T00:26:07;5.82;;;3.20;;
73632;SDS011;61927;50.080;14.418;2023-07-13T00:28:34;6.35;;;3.45;;
73632;SDS011;61927;50.080;14.418;2023-07-13T00:31:01;5.82;;;3.05;;
73632;SDS011;61927;50.080;14.418;2023-07-13T00:33:27;6.55;;;3.35;;
73632;SDS011;61927;50.080;14.418;2023-07-13T00:35:54;7.90;;;3.10;;
73632;SDS011;61927;50.080;14.418;2023-07-13T00:38:21;9.18;;;3.25;;
73632;SDS011;61927;50.080;14.418;2023-07-13T00:40:47;4.15;;;3.00;;
73632;SDS011;61927;50.080;14.418;2023-07-13T00:43:17;4.85;;;3.17;;
73632;SDS011;61927;50.080;14.418;2023-07-13T00:48:16;4.22;;;3.13;;
73632;SDS011;61927;50.080;14.418;2023-07-13T00:50:46;4.90;;;3.30;;
73632;SDS011;61927;50.080;14.418;2023-07-13T00:53:15;7.57;;;3.65;;
73632;SDS011;61927;50.080;14.418;2023-07-13T00:55:41;12.93;;;3.70;;
73632;SDS011;61927;50.080;14.418;2023-07-13T00:58:07;5.03;;;3.45;;
73632;SDS011;61927;50.080;14.418;2023-07-13T01:00:34;3.47;;;3.17;;
73632;SDS011;61927;50.080;14.418;2023-07-13T01:03:01;6.32;;;3.50;;
73632;SDS011;61927;50.080;14.418;2023-07-13T01:05:30;8.35;;;4.10;;
73632;SDS011;61927;50.080;14.418;2023-07-13T01:08:00;5.03;;;3.45;;
73632;SDS011;61927;50.080;14.418;2023-07-13T01:10:32;7.60;;;3.83;;
73632;SDS011;61927;50.080;14.418;2023-07-13T01:13:05;6.22;;;3.58;;
73632;SDS011;61927;50.080;14.418;2023-07-13T01:15:33;15.25;;;3.65;;
73632;SDS011;61927;50.080;14.418;2023-07-13T01:18:01;7.85;;;3.67;;
73632;SDS011;61927;50.080;14.418;2023-07-13T01:20:27;8.82;;;3.92;;
73632;SDS011;61927;50.080;14.418;2023-07-13T01:22:53;8.30;;;3.55;;
73632;SDS011;61927;50.080;14.418;2023-07-13T01:25:19;10.93;;;3.70;;
73632;SDS011;61927;50.080;14.418;2023-07-13T01:27:46;5.85;;;3.28;;
73632;SDS011;61927;50.080;14.418;2023-07-13T01:30:12;9.00;;;4.03;;
73632;SDS011;61927;50.080;14.418;2023-07-13T01:32:38;6.43;;;3.80;;
73632;SDS011;61927;50.080;14.418;2023-07-13T01:35:07;5.20;;;3.50;;
73632;SDS011;61927;50.080;14.418;2023-07-13T01:37:33;9.23;;;3.70;;
73632;SDS011;61927;50.080;14.418;2023-07-13T01:40:01;6.35;;;3.97;;
73632;SDS011;61927;50.080;14.418;2023-07-13T01:42:29;10.75;;;3.58;;
73632;SDS011;61927;50.080;14.418;2023-07-13T01:44:55;12.55;;;3.75;;
73632;SDS011;61927;50.080;14.418;2023-07-13T01:47:21;12.10;;;3.67;;
73632;SDS011;61927;50.080;14.418;2023-07-13T01:49:48;8.32;;;4.40;;
73632;SDS011;61927;50.080;14.418;2023-07-13T01:52:13;7.22;;;3.53;;
73632;SDS011;61927;50.080;14.418;2023-07-13T01:54:39;4.70;;;3.67;;
73632;SDS011;61927;50.080;14.418;2023-07-13T01:57:05;6.70;;;3.78;;
73632;SDS011;61927;50.080;14.418;2023-07-13T01:59:30;6.25;;;3.53;;
73632;SDS011;61927;50.080;14.418;2023-07-13T02:01:58;5.70;;;3.65;;
73632;SDS011;61927;50.080;14.418;2023-07-13T02:04:23;11.02;;;3.97;;
73632;SDS011;61927;50.080;14.418;2023-07-13T02:06:49;7.63;;;3.65;;
73632;SDS011;61927;50.080;14.418;2023-07-13T02:09:14;9.15;;;3.67;;
73632;SDS011;61927;50.080;14.418;2023-07-13T02:11:40;6.85;;;4.00;;
73632;SDS011;61927;50.080;14.418;2023-07-13T02:14:06;9.63;;;4.10;;
73632;SDS011;61927;50.080;14.418;2023-07-13T02:16:31;6.22;;;3.67;;
73632;SDS011;61927;50.080;14.418;2023-07-13T02:18:57;5.70;;;3.92;;
73632;SDS011;61927;50.080;14.418;2023-07-13T02:21:23;4.97;;;3.80;;
73632;SDS011;61927;50.080;14.418;2023-07-13T02:23:49;10.32;;;4.35;;
73632;SDS011;61927;50.080;14.418;2023-07-13T02:26:15;4.72;;;3.47;;
73632;SDS011;61927;50.080;14.418;2023-07-13T02:28:41;5.38;;;3.58;;
73632;SDS011;61927;50.080;14.418;2023-07-13T02:31:08;15.77;;;3.95;;
73632;SDS011;61927;50.080;14.418;2023-07-13T02:33:34;3.97;;;3.67;;
73632;SDS011;61927;50.080;14.418;2023-07-13T02:36:00;9.25;;;4.68;;
73632;SDS011;61927;50.080;14.418;2023-07-13T02:38:26;4.90;;;3.53;;
73632;SDS011;61927;50.080;14.418;2023-07-13T02:40:52;3.75;;;3.40;;
73632;SDS011;61927;50.080;14.418;2023-07-13T02:43:18;6.20;;;3.45;;
73632;SDS011;61927;50.080;14.418;2023-07-13T02:45:44;4.95;;;3.67;;
73632;SDS011;61927;50.080;14.418;2023-07-13T02:48:10;6.22;;;3.83;;
73632;SDS011;61927;50.080;14.418;2023-07-13T02:50:36;4.38;;;3.65;;
73632;SDS011;61927;50.080;14.418;2023-07-13T02:53:02;5.50;;;3.65;;
73632;SDS011;61927;50.080;14.418;2023-07-13T02:55:27;8.90;;;4.15;;
73632;SDS011;61927;50.080;14.418;2023-07-13T02:57:53;4.60;;;3.67;;
73632;SDS011;61927;50.080;14.418;2023-07-13T03:00:19;7.82;;;3.95;;
73632;SDS011;61927;50.080;14.418;2023-07-13T03:02:45;6.60;;;3.75;;
73632;SDS011;61927;50.080;14.418;2023-07-13T03:05:11;7.43;;;4.00;;
73632;SDS011;61927;50.080;14.418;2023-07-13T03:07:38;4.32;;;3.88;;
73632;SDS011;61927;50.080;14.418;2023-07-13T03:10:04;7.70;;;4.05;;
73632;SDS011;61927;50.080;14.418;2023-07-13T03:12:31;4.15;;;3.65;;
73632;SDS011;61927;50.080;14.418;2023-07-13T03:14:57;4.43;;;3.85;;
73632;SDS011;61927;50.080;14.418;2023-07-13T03:17:23;4.75;;;4.10;;
73632;SDS011;61927;50.080;14.418;2023-07-13T03:19:49;7.10;;;3.83;;
73632;SDS011;61927;50.080;14.418;2023-07-13T03:22:16;7.18;;;4.10;;
73632;SDS011;61927;50.080;14.418;2023-07-13T03:24:43;5.50;;;3.70;;
73632;SDS011;61927;50.080;14.418;2023-07-13T03:27:08;7.72;;;4.13;;
73632;SDS011;61927;50.080;14.418;2023-07-13T03:29:34;7.55;;;3.70;;
73632;SDS011;61927;50.080;14.418;2023-07-13T03:32:00;9.88;;;3.88;;
73632;SDS011;61927;50.080;14.418;2023-07-13T03:34:26;4.55;;;3.38;;
73632;SDS011;61927;50.080;14.418;2023-07-13T03:36:53;3.53;;;2.70;;
73632;SDS011;61927;50.080;14.418;2023-07-13T03:39:20;4.95;;;2.78;;
73632;SDS011;61927;50.080;14.418;2023-07-13T03:41:46;4.18;;;2.55;;
73632;SDS011;61927;50.080;14.418;2023-07-13T03:44:12;6.88;;;2.53;;
73632;SDS011;61927;50.080;14.418;2023-07-13T03:46:37;16.02;;;2.35;;
73632;SDS011;61927;50.080;14.418;2023-07-13T03:49:04;2.95;;;2.13;;
73632;SDS011;61927;50.080;14.418;2023-07-13T03:51:30;1.75;;;1.65;;
73632;SDS011;61927;50.080;14.418;2023-07-13T03:53:56;4.53;;;1.85;;
73632;SDS011;61927;50.080;14.418;2023-07-13T03:56:22;8.05;;;1.80;;
73632;SDS011;61927;50.080;14.418;2023-07-13T03:58:48;8.88;;;1.92;;
73632;SDS011;61927;50.080;14.418;2023-07-13T04:01:16;2.80;;;1.80;;
73632;SDS011;61927;50.080;14.418;2023-07-13T04:03:43;5.28;;;1.77;;
73632;SDS011;61927;50.080;14.418;2023-07-13T04:06:13;3.38;;;1.98;;
73632;SDS011;61927;50.080;14.418;2023-07-13T04:08:46;4.22;;;1.77;;
73632;SDS011;61927;50.080;14.418;2023-07-13T04:11:14;9.70;;;1.70;;
73632;SDS011;61927;50.080;14.418;2023-07-13T04:13:40;4.80;;;1.63;;
73632;SDS011;61927;50.080;14.418;2023-07-13T04:16:05;2.97;;;1.77;;
73632;SDS011;61927;50.080;14.418;2023-07-13T04:18:31;2.50;;;1.50;;
73632;SDS011;61927;50.080;14.418;2023-07-13T04:20:56;4.00;;;1.70;;
73632;SDS011;61927;50.080;14.418;2023-07-13T04:23:22;1.77;;;1.63;;
73632;SDS011;61927;50.080;14.418;2023-07-13T04:25:48;5.63;;;1.70;;
73632;SDS011;61927;50.080;14.418;2023-07-13T04:28:18;4.78;;;2.10;;
73632;SDS011;61927;50.080;14.418;2023-07-13T04:30:45;11.30;;;2.03;;
73632;SDS011;61927;50.080;14.418;2023-07-13T04:33:11;4.10;;;1.48;;
73632;SDS011;61927;50.080;14.418;2023-07-13T04:35:36;4.28;;;1.70;;
73632;SDS011;61927;50.080;14.418;2023-07-13T04:38:02;7.63;;;1.60;;
73632;SDS011;61927;50.080;14.418;2023-07-13T04:40:28;8.68;;;1.67;;
73632;SDS011;61927;50.080;14.418;2023-07-13T04:43:00;2.90;;;1.80;;
73632;SDS011;61927;50.080;14.418;2023-07-13T04:45:38;2.72;;;1.50;;
73632;SDS011;61927;50.080;14.418;2023-07-13T04:48:04;1.63;;;1.52;;
73632;SDS011;61927;50.080;14.418;2023-07-13T04:50:30;3.53;;;1.88;;
73632;SDS011;61927;50.080;14.418;2023-07-13T04:52:56;2.47;;;1.50;;
73632;SDS011;61927;50.080;14.418;2023-07-13T04:55:21;7.57;;;1.95;;
73632;SDS011;61927;50.080;14.418;2023-07-13T04:57:47;9.57;;;3.65;;
73632;SDS011;61927;50.080;14.418;2023-07-13T05:00:13;4.68;;;1.80;;
73632;SDS011;61927;50.080;14.418;2023-07-13T05:02:42;4.60;;;2.05;;
73632;SDS011;61927;50.080;14.418;2023-07-13T05:05:09;2.58;;;1.80;;
73632;SDS011;61927;50.080;14.418;2023-07-13T05:07:34;7.78;;;2.10;;
73632;SDS011;61927;50.080;14.418;2023-07-13T05:10:00;1.73;;;1.60;;
73632;SDS011;61927;50.080;14.418;2023-07-13T05:12:26;1.90;;;1.80;;
73632;SDS011;61927;50.080;14.418;2023-07-13T05:14:55;3.13;;;1.90;;
73632;SDS011;61927;50.080;14.418;2023-07-13T05:17:42;3.55;;;1.70;;
73632;SDS011;61927;50.080;14.418;2023-07-13T05:20:08;2.28;;;2.00;;
73632;SDS011;61927;50.080;14.418;2023-07-13T05:22:35;10.60;;;2.03;;
73632;SDS011;61927;50.080;14.418;2023-07-13T05:25:01;11.52;;;2.60;;
73632;SDS011;61927;50.080;14.418;2023-07-13T05:27:28;6.95;;;1.90;;
73632;SDS011;61927;50.080;14.418;2023-07-13T05:29:54;8.18;;;2.20;;
73632;SDS011;61927;50.080;14.418;2023-07-13T05:32:20;6.40;;;1.88;;
73632;SDS011;61927;50.080;14.418;2023-07-13T05:34:45;3.03;;;1.90;;
73632;SDS011;61927;50.080;14.418;2023-07-13T05:37:11;4.68;;;1.83;;
73632;SDS011;61927;50.080;14.418;2023-07-13T05:39:36;3.38;;;1.92;;
73632;SDS011;61927;50.080;14.418;2023-07-13T05:42:02;8.02;;;1.65;;
73632;SDS011;61927;50.080;14.418;2023-07-13T05:44:28;9.27;;;1.90;;
73632;SDS011;61927;50.080;14.418;2023-07-13T05:46:54;6.50;;;1.92;;
73632;SDS011;61927;50.080;14.418;2023-07-13T05:49:21;11.43;;;2.40;;
73632;SDS011;61927;50.080;14.418;2023-07-13T05:51:48;3.08;;;2.10;;
73632;SDS011;61927;50.080;14.418;2023-07-13T05:54:14;4.60;;;2.33;;
73632;SDS011;61927;50.080;14.418;2023-07-13T05:56:39;2.60;;;1.95;;
73632;SDS011;61927;50.080;14.418;2023-07-13T05:59:05;9.10;;;2.40;;
73632;SDS011;61927;50.080;14.418;2023-07-13T06:01:31;3.75;;;1.95;;
73632;SDS011;61927;50.080;14.418;2023-07-13T06:03:56;2.20;;;1.98;;
73632;SDS011;61927;50.080;14.418;2023-07-13T06:06:22;3.40;;;2.00;;
73632;SDS011;61927;50.080;14.418;2023-07-13T06:08:48;6.13;;;2.20;;
73632;SDS011;61927;50.080;14.418;2023-07-13T06:11:18;5.45;;;2.10;;
73632;SDS011;61927;50.080;14.418;2023-07-13T06:13:46;2.08;;;1.83;;
73632;SDS011;61927;50.080;14.418;2023-07-13T06:16:12;2.60;;;2.05;;
73632;SDS011;61927;50.080;14.418;2023-07-13T06:18:39;7.35;;;2.75;;
73632;SDS011;61927;50.080;14.418;2023-07-13T06:21:06;3.08;;;1.60;;
73632;SDS011;61927;50.080;14.418;2023-07-13T06:23:33;5.68;;;2.08;;
73632;SDS011;61927;50.080;14.418;2023-07-13T06:25:59;8.43;;;1.90;;
73632;SDS011;61927;50.080;14.418;2023-07-13T06:28:24;4.68;;;1.80;;
73632;SDS011;61927;50.080;14.418;2023-07-13T06:30:50;7.38;;;2.03;;
73632;SDS011;61927;50.080;14.418;2023-07-13T06:33:15;2.05;;;1.85;;
73632;SDS011;61927;50.080;14.418;2023-07-13T06:35:42;1.80;;;1.70;;
73632;SDS011;61927;50.080;14.418;2023-07-13T06:38:07;8.63;;;2.15;;
73632;SDS011;61927;50.080;14.418;2023-07-13T06:40:33;8.07;;;2.10;;
73632;SDS011;61927;50.080;14.418;2023-07-13T06:42:59;7.50;;;2.10;;
73632;SDS011;61927;50.080;14.418;2023-07-13T06:45:24;4.70;;;2.00;;
73632;SDS011;61927;50.080;14.418;2023-07-13T06:47:50;3.15;;;2.03;;
73632;SDS011;61927;50.080;14.418;2023-07-13T06:50:16;3.92;;;1.58;;
73632;SDS011;61927;50.080;14.418;2023-07-13T06:52:41;2.95;;;1.50;;
73632;SDS011;61927;50.080;14.418;2023-07-13T06:55:07;6.38;;;1.60;;
73632;SDS011;61927;50.080;14.418;2023-07-13T06:57:33;3.03;;;1.90;;
73632;SDS011;61927;50.080;14.418;2023-07-13T06:59:59;2.30;;;1.80;;
73632;SDS011;61927;50.080;14.418;2023-07-13T07:02:24;3.70;;;1.85;;
73632;SDS011;61927;50.080;14.418;2023-07-13T07:04:50;8.95;;;1.98;;
73632;SDS011;61927;50.080;14.418;2023-07-13T07:07:16;4.03;;;1.60;;
73632;SDS011;61927;50.080;14.418;2023-07-13T07:09:42;11.73;;;2.17;;
73632;SDS011;61927;50.080;14.418;2023-07-13T07:12:07;7.35;;;1.80;;
73632;SDS011;61927;50.080;14.418;2023-07-13T07:14:33;7.20;;;1.90;;
73632;SDS011;61927;50.080;14.418;2023-07-13T07:16:59;4.35;;;1.67;;
73632;SDS011;61927;50.080;14.418;2023-07-13T07:19:26;7.60;;;1.58;;
73632;SDS011;61927;50.080;14.418;2023-07-13T07:21:52;5.10;;;1.75;;
73632;SDS011;61927;50.080;14.418;2023-07-13T07:24:18;3.13;;;1.92;;
73632;SDS011;61927;50.080;14.418;2023-07-13T07:26:43;4.45;;;2.00;;
73632;SDS011;61927;50.080;14.418;2023-07-13T07:29:09;1.85;;;1.73;;
73632;SDS011;61927;50.080;14.418;2023-07-13T07:31:35;1.50;;;1.40;;
73632;SDS011;61927;50.080;14.418;2023-07-13T07:34:02;7.13;;;1.92;;
73632;SDS011;61927;50.080;14.418;2023-07-13T07:36:28;1.90;;;1.70;;
73632;SDS011;61927;50.080;14.418;2023-07-13T07:38:54;2.92;;;1.52;;
73632;SDS011;61927;50.080;14.418;2023-07-13T07:41:19;9.35;;;2.08;;
73632;SDS011;61927;50.080;14.418;2023-07-13T07:43:45;8.07;;;2.08;;
73632;SDS011;61927;50.080;14.418;2023-07-13T07:46:11;8.23;;;2.00;;
73632;SDS011;61927;50.080;14.418;2023-07-13T07:48:36;6.82;;;2.10;;
73632;SDS011;61927;50.080;14.418;2023-07-13T07:51:02;2.65;;;1.67;;
73632;SDS011;61927;50.080;14.418;2023-07-13T07:53:28;4.15;;;1.88;;
73632;SDS011;61927;50.080;14.418;2023-07-13T07:55:53;6.90;;;1.80;;
73632;SDS011;61927;50.080;14.418;2023-07-13T07:58:19;3.78;;;1.50;;
73632;SDS011;61927;50.080;14.418;2023-07-13T08:00:45;3.92;;;1.95;;
73632;SDS011;61927;50.080;14.418;2023-07-13T08:03:11;14.90;;;2.75;;
73632;SDS011;61927;50.080;14.418;2023-07-13T08:05:36;3.80;;;1.90;;
73632;SDS011;61927;50.080;14.418;2023-07-13T08:08:03;4.43;;;1.65;;
73632;SDS011;61927;50.080;14.418;2023-07-13T08:10:28;6.60;;;1.40;;
73632;SDS011;61927;50.080;14.418;2023-07-13T08:12:54;3.47;;;1.83;;
73632;SDS011;61927;50.080;14.418;2023-07-13T08:15:20;6.88;;;2.00;;
73632;SDS011;61927;50.080;14.418;2023-07-13T08:17:47;6.75;;;2.10;;
73632;SDS011;61927;50.080;14.418;2023-07-13T08:20:13;2.45;;;1.50;;
73632;SDS011;61927;50.080;14.418;2023-07-13T08:22:39;9.07;;;1.52;;
73632;SDS011;61927;50.080;14.418;2023-07-13T08:25:05;1.45;;;1.35;;
73632;SDS011;61927;50.080;14.418;2023-07-13T08:27:31;5.63;;;1.80;;
73632;SDS011;61927;50.080;14.418;2023-07-13T08:29:56;2.80;;;1.50;;
73632;SDS011;61927;50.080;14.418;2023-07-13T08:32:23;1.40;;;1.30;;
73632;SDS011;61927;50.080;14.418;2023-07-13T08:34:48;3.63;;;2.03;;
73632;SDS011;61927;50.080;14.418;2023-07-13T08:37:15;3.50;;;1.70;;
73632;SDS011;61927;50.080;14.418;2023-07-13T08:39:42;5.45;;;1.67;;
73632;SDS011;61927;50.080;14.418;2023-07-13T08:42:16;7.25;;;1.75;;
73632;SDS011;61927;50.080;14.418;2023-07-13T08:44:55;1.42;;;1.33;;
73632;SDS011;61927;50.080;14.418;2023-07-13T08:47:28;4.78;;;1.60;;
73632;SDS011;61927;50.080;14.418;2023-07-13T08:49:56;4.65;;;1.80;;
73632;SDS011;61927;50.080;14.418;2023-07-13T08:52:33;12.77;;;2.83;;
73632;SDS011;61927;50.080;14.418;2023-07-13T08:57:52;5.03;;;1.60;;
73632;SDS011;61927;50.080;14.418;2023-07-13T09:00:25;2.50;;;1.48;;
73632;SDS011;61927;50.080;14.418;2023-07-13T09:03:23;2.20;;;1.80;;
73632;SDS011;61927;50.080;14.418;2023-07-13T09:05:56;3.25;;;1.40;;
73632;SDS011;61927;50.080;14.418;2023-07-13T09:08:39;3.17;;;1.55;;
73632;SDS011;61927;50.080;14.418;2023-07-13T09:14:34;4.57;;;1.80;;
73632;SDS011;61927;50.080;14.418;2023-07-13T09:17:32;1.60;;;1.50;;
73632;SDS011;61927;50.080;14.418;2023-07-13T09:20:26;7.10;;;1.88;;
73632;SDS011;61927;50.080;14.418;2023-07-13T09:22:53;9.40;;;1.90;;
73632;SDS011;61927;50.080;14.418;2023-07-13T09:25:29;1.42;;;1.35;;
73632;SDS011;61927;50.080;14.418;2023-07-13T09:28:09;8.93;;;1.67;;
73632;SDS011;61927;50.080;14.418;2023-07-13T09:30:50;2.00;;;1.88;;
73632;SDS011;61927;50.080;14.418;2023-07-13T09:33:23;5.35;;;1.83;;
73632;SDS011;61927;50.080;14.418;2023-07-13T09:35:49;7.15;;;4.05;;
73632;SDS011;61927;50.080;14.418;2023-07-13T09:38:18;6.65;;;2.00;;
73632;SDS011;61927;50.080;14.418;2023-07-13T09:46:31;6.32;;;1.80;;
73632;SDS011;61927;50.080;14.418;2023-07-13T09:48:56;3.75;;;1.50;;
73632;SDS011;61927;50.080;14.418;2023-07-13T09:51:22;8.93;;;2.47;;
73632;SDS011;61927;50.080;14.418;2023-07-13T09:53:48;10.07;;;2.15;;
73632;SDS011;61927;50.080;14.418;2023-07-13T09:56:22;7.60;;;2.08;;
73632;SDS011;61927;50.080;14.418;2023-07-13T09:58:49;4.65;;;2.40;;
73632;SDS011;61927;50.080;14.418;2023-07-13T10:01:15;3.63;;;1.38;;
73632;SDS011;61927;50.080;14.418;2023-07-13T10:03:51;6.82;;;1.48;;
73632;SDS011;61927;50.080;14.418;2023-07-13T10:06:20;3.08;;;1.80;;
73632;SDS011;61927;50.080;14.418;2023-07-13T10:08:47;3.17;;;1.80;;
73632;SDS011;61927;50.080;14.418;2023-07-13T10:11:19;4.70;;;1.50;;
73632;SDS011;61927;50.080;14.418;2023-07-13T10:13:52;4.43;;;1.50;;
73632;SDS011;61927;50.080;14.418;2023-07-13T10:16:28;3.30;;;1.55;;
73632;SDS011;61927;50.080;14.418;2023-07-13T10:18:59;7.35;;;1.90;;
73632;SDS011;61927;50.080;14.418;2023-07-13T10:21:32;3.07;;;1.43;;
73632;SDS011;61927;50.080;14.418;2023-07-13T10:24:23;16.13;;;1.30;;
73632;SDS011;61927;50.080;14.418;2023-07-13T10:26:55;6.05;;;1.48;;
73632;SDS011;61927;50.080;14.418;2023-07-13T10:29:25;5.68;;;1.10;;
73632;SDS011;61927;50.080;14.418;2023-07-13T10:31:55;3.75;;;1.40;;
73632;SDS011;61927;50.080;14.418;2023-07-13T10:34:24;2.50;;;1.17;;
73632;SDS011;61927;50.080;14.418;2023-07-13T10:36:51;12.82;;;1.73;;
73632;SDS011;61927;50.080;14.418;2023-07-13T10:39:22;5.60;;;1.55;;
73632;SDS011;61927;50.080;14.418;2023-07-13T10:42:01;1.45;;;1.30;;
73632;SDS011;61927;50.080;14.418;2023-07-13T10:44:31;2.13;;;1.42;;
73632;SDS011;61927;50.080;14.418;2023-07-13T10:47:00;2.08;;;1.38;;
73632;SDS011;61927;50.080;14.418;2023-07-13T10:49:29;4.25;;;1.40;;
73632;SDS011;61927;50.080;14.418;2023-07-13T10:52:01;2.08;;;1.30;;
73632;SDS011;61927;50.080;14.418;2023-07-13T10:54:30;8.25;;;1.23;;
73632;SDS011;61927;50.080;14.418;2023-07-13T10:59:46;4.28;;;1.30;;
73632;SDS011;61927;50.080;14.418;2023-07-13T11:02:22;9.50;;;1.90;;
73632;SDS011;61927;50.080;14.418;2023-07-13T11:04:54;3.85;;;2.30;;
73632;SDS011;61927;50.080;14.418;2023-07-13T11:09:58;3.40;;;1.15;;
73632;SDS011;61927;50.080;14.418;2023-07-13T11:12:49;5.63;;;1.42;;
73632;SDS011;61927;50.080;14.418;2023-07-13T11:15:26;9.13;;;1.58;;
73632;SDS011;61927;50.080;14.418;2023-07-13T11:18:02;45.95;;;9.88;;
73632;SDS011;61927;50.080;14.418;2023-07-13T11:20:33;7.65;;;2.38;;
73632;SDS011;61927;50.080;14.418;2023-07-13T11:25:41;1.85;;;1.23;;
73632;SDS011;61927;50.080;14.418;2023-07-13T11:33:14;11.48;;;3.72;;
73632;SDS011;61927;50.080;14.418;2023-07-13T11:35:50;11.25;;;2.60;;
73632;SDS011;61927;50.080;14.418;2023-07-13T11:41:51;3.70;;;1.60;;
73632;SDS011;61927;50.080;14.418;2023-07-13T11:44:14;3.03;;;1.52;;
73632;SDS011;61927;50.080;14.418;2023-07-13T11:46:48;3.40;;;1.20;;
73632;SDS011;61927;50.080;14.418;2023-07-13T11:49:17;2.55;;;1.58;;
73632;SDS011;61927;50.080;14.418;2023-07-13T11:51:46;3.42;;;1.50;;
73632;SDS011;61927;50.080;14.418;2023-07-13T11:54:23;5.53;;;1.80;;
73632;SDS011;61927;50.080;14.418;2023-07-13T11:56:52;3.03;;;1.42;;
73632;SDS011;61927;50.080;14.418;2023-07-13T11:59:20;4.28;;;1.20;;
73632;SDS011;61927;50.080;14.418;2023-07-13T12:01:49;2.30;;;1.60;;
73632;SDS011;61927;50.080;14.418;2023-07-13T12:04:28;4.13;;;1.60;;
73632;SDS011;61927;50.080;14.418;2023-07-13T12:07:05;10.90;;;2.40;;
73632;SDS011;61927;50.080;14.418;2023-07-13T12:09:34;3.10;;;2.10;;
73632;SDS011;61927;50.080;14.418;2023-07-13T12:12:01;5.07;;;1.45;;
73632;SDS011;61927;50.080;14.418;2023-07-13T12:14:28;7.97;;;2.60;;
73632;SDS011;61927;50.080;14.418;2023-07-13T12:16:54;5.25;;;1.50;;
73632;SDS011;61927;50.080;14.418;2023-07-13T12:19:22;4.43;;;1.60;;
73632;SDS011;61927;50.080;14.418;2023-07-13T12:21:53;1.85;;;1.60;;
73632;SDS011;61927;50.080;14.418;2023-07-13T12:24:21;1.75;;;1.60;;
73632;SDS011;61927;50.080;14.418;2023-07-13T12:26:51;2.38;;;1.75;;
73632;SDS011;61927;50.080;14.418;2023-07-13T12:29:19;8.13;;;1.98;;
73632;SDS011;61927;50.080;14.418;2023-07-13T12:31:47;14.27;;;2.67;;
73632;SDS011;61927;50.080;14.418;2023-07-13T12:34:21;1.48;;;1.35;;
73632;SDS011;61927;50.080;14.418;2023-07-13T12:39:15;4.28;;;1.30;;
73632;SDS011;61927;50.080;14.418;2023-07-13T12:41:43;9.38;;;1.75;;
73632;SDS011;61927;50.080;14.418;2023-07-13T12:44:11;5.63;;;1.88;;
73632;SDS011;61927;50.080;14.418;2023-07-13T12:46:38;4.57;;;1.65;;
73632;SDS011;61927;50.080;14.418;2023-07-13T12:49:07;9.25;;;1.80;;
73632;SDS011;61927;50.080;14.418;2023-07-13T12:51:33;19.23;;;3.88;;
73632;SDS011;61927;50.080;14.418;2023-07-13T12:54:06;9.05;;;3.17;;
73632;SDS011;61927;50.080;14.418;2023-07-13T12:56:40;4.90;;;1.77;;
73632;SDS011;61927;50.080;14.418;2023-07-13T12:59:08;10.35;;;3.67;;
73632;SDS011;61927;50.080;14.418;2023-07-13T13:01:43;5.18;;;1.98;;
73632;SDS011;61927;50.080;14.418;2023-07-13T13:04:09;3.53;;;1.38;;
73632;SDS011;61927;50.080;14.418;2023-07-13T13:06:36;4.13;;;2.40;;
73632;SDS011;61927;50.080;14.418;2023-07-13T13:09:03;2.35;;;1.55;;
73632;SDS011;61927;50.080;14.418;2023-07-13T13:11:29;4.03;;;2.42;;
73632;SDS011;61927;50.080;14.418;2023-07-13T13:13:56;3.78;;;1.40;;
73632;SDS011;61927;50.080;14.418;2023-07-13T13:16:29;3.22;;;1.50;;
73632;SDS011;61927;50.080;14.418;2023-07-13T13:18:57;1.65;;;1.38;;
73632;SDS011;61927;50.080;14.418;2023-07-13T13:21:27;6.50;;;1.58;;
73632;SDS011;61927;50.080;14.418;2023-07-13T13:23:53;13.43;;;1.95;;
73632;SDS011;61927;50.080;14.418;2023-07-13T13:26:19;9.60;;;1.50;;
73632;SDS011;61927;50.080;14.418;2023-07-13T13:28:46;13.30;;;2.00;;
73632;SDS011;61927;50.080;14.418;2023-07-13T13:31:13;2.08;;;1.60;;
73632;SDS011;61927;50.080;14.418;2023-07-13T13:33:41;4.10;;;1.67;;
73632;SDS011;61927;50.080;14.418;2023-07-13T13:36:14;4.93;;;1.88;;
73632;SDS011;61927;50.080;14.418;2023-07-13T13:38:41;7.05;;;1.50;;
73632;SDS011;61927;50.080;14.418;2023-07-13T13:41:08;12.30;;;1.80;;
73632;SDS011;61927;50.080;14.418;2023-07-13T13:43:35;4.35;;;1.80;;
73632;SDS011;61927;50.080;14.418;2023-07-13T13:46:01;15.07;;;1.80;;
73632;SDS011;61927;50.080;14.418;2023-07-13T13:48:31;10.05;;;2.35;;
73632;SDS011;61927;50.080;14.418;2023-07-13T13:50:58;3.10;;;1.58;;
73632;SDS011;61927;50.080;14.418;2023-07-13T13:53:25;6.10;;;1.73;;
73632;SDS011;61927;50.080;14.418;2023-07-13T13:55:51;5.30;;;1.48;;
73632;SDS011;61927;50.080;14.418;2023-07-13T13:58:18;1.67;;;1.27;;
73632;SDS011;61927;50.080;14.418;2023-07-13T14:00:45;5.30;;;1.52;;
73632;SDS011;61927;50.080;14.418;2023-07-13T14:03:16;2.05;;;1.40;;
73632;SDS011;61927;50.080;14.418;2023-07-13T14:05:44;1.67;;;1.40;;
73632;SDS011;61927;50.080;14.418;2023-07-13T14:08:17;3.10;;;1.60;;
73632;SDS011;61927;50.080;14.418;2023-07-13T14:10:45;2.95;;;1.50;;
73632;SDS011;61927;50.080;14.418;2023-07-13T14:13:17;3.85;;;1.70;;
73632;SDS011;61927;50.080;14.418;2023-07-13T14:15:45;51.17;;;3.38;;
73632;SDS011;61927;50.080;14.418;2023-07-13T14:18:11;13.80;;;2.35;;
73632;SDS011;61927;50.080;14.418;2023-07-13T14:20:37;18.80;;;3.28;;
73632;SDS011;61927;50.080;14.418;2023-07-13T14:23:03;13.25;;;2.30;;
73632;SDS011;61927;50.080;14.418;2023-07-13T14:25:28;6.72;;;1.65;;
73632;SDS011;61927;50.080;14.418;2023-07-13T14:27:57;3.90;;;1.50;;
73632;SDS011;61927;50.080;14.418;2023-07-13T14:30:33;5.07;;;1.95;;
73632;SDS011;61927;50.080;14.418;2023-07-13T14:32:59;6.03;;;1.50;;
73632;SDS011;61927;50.080;14.418;2023-07-13T14:35:24;14.15;;;4.80;;
73632;SDS011;61927;50.080;14.418;2023-07-13T14:37:51;5.25;;;1.60;;
73632;SDS011;61927;50.080;14.418;2023-07-13T14:40:17;8.35;;;3.10;;
73632;SDS011;61927;50.080;14.418;2023-07-13T14:42:50;41.88;;;3.03;;
73632;SDS011;61927;50.080;14.418;2023-07-13T14:45:16;6.85;;;1.63;;
73632;SDS011;61927;50.080;14.418;2023-07-13T14:47:44;3.83;;;1.40;;
73632;SDS011;61927;50.080;14.418;2023-07-13T14:50:20;3.85;;;1.92;;
73632;SDS011;61927;50.080;14.418;2023-07-13T14:52:50;11.20;;;3.83;;
73632;SDS011;61927;50.080;14.418;2023-07-13T14:55:17;6.82;;;2.05;;
73632;SDS011;61927;50.080;14.418;2023-07-13T14:57:44;5.18;;;1.40;;
73632;SDS011;61927;50.080;14.418;2023-07-13T15:00:15;6.25;;;1.88;;
73632;SDS011;61927;50.080;14.418;2023-07-13T15:02:43;8.73;;;1.70;;
73632;SDS011;61927;50.080;14.418;2023-07-13T15:05:13;9.77;;;2.28;;
73632;SDS011;61927;50.080;14.418;2023-07-13T15:07:41;5.30;;;2.13;;
73632;SDS011;61927;50.080;14.418;2023-07-13T15:10:14;9.10;;;1.52;;
73632;SDS011;61927;50.080;14.418;2023-07-13T15:12:41;5.22;;;2.00;;